createdAt,value
2016-09-30T00:00:34.362Z,20.03
2016-09-30T00:01:34.809Z,20.04
2016-09-30T00:02:34.324Z,20.03
2016-09-30T00:03:34.348Z,20.09
2016-09-30T00:04:34.582Z,20.04
2016-09-30T00:05:34.469Z,20
2016-09-30T00:06:34.421Z,20.03
2016-09-30T00:07:34.449Z,20
2016-09-30T00:08:34.492Z,20.03
2016-09-30T00:09:34.497Z,20.04
2016-09-30T00:10:34.515Z,20.02
2016-09-30T00:11:34.537Z,20.02
2016-09-30T00:12:34.566Z,19.99
2016-09-30T00:13:34.604Z,20
2016-09-30T00:14:34.616Z,19.96
2016-09-30T00:15:34.637Z,19.99
2016-09-30T00:16:34.658Z,19.94
2016-09-30T00:17:34.685Z,19.96
2016-09-30T00:18:34.707Z,19.92
2016-09-30T00:19:34.736Z,19.95
2016-09-30T00:20:34.763Z,19.96
2016-09-30T00:21:34.782Z,19.92
2016-09-30T00:22:34.818Z,19.89
2016-09-30T00:23:34.837Z,19.91
2016-09-30T00:24:34.857Z,19.88
2016-09-30T00:25:34.882Z,19.82
2016-09-30T00:26:34.894Z,19.88
2016-09-30T00:27:34.931Z,19.86
2016-09-30T00:28:34.959Z,19.88
2016-09-30T00:29:34.984Z,19.89
2016-09-30T00:30:35.087Z,19.89
2016-09-30T00:31:35.097Z,19.81
2016-09-30T00:32:35.051Z,19.91
2016-09-30T00:33:35.076Z,19.88
2016-09-30T00:34:35.101Z,19.91
2016-09-30T00:35:35.115Z,19.89
2016-09-30T00:36:35.157Z,19.84
2016-09-30T00:37:35.175Z,19.76
2016-09-30T00:38:35.184Z,19.84
2016-09-30T00:39:35.231Z,19.82
2016-09-30T00:40:35.231Z,19.77
2016-09-30T00:41:35.269Z,19.73
2016-09-30T00:42:35.282Z,19.81
2016-09-30T00:43:35.314Z,19.74
2016-09-30T00:44:35.332Z,19.79
2016-09-30T00:45:35.363Z,19.71
2016-09-30T00:46:35.385Z,19.71
2016-09-30T00:47:35.408Z,19.77
2016-09-30T00:48:35.424Z,19.69
2016-09-30T00:49:35.449Z,19.71
2016-09-30T00:50:35.560Z,19.71
2016-09-30T00:51:35.512Z,19.84
2016-09-30T00:52:35.533Z,19.82
2016-09-30T00:53:35.870Z,19.74
2016-09-30T00:54:35.575Z,19.79
2016-09-30T00:55:35.590Z,19.74
2016-09-30T00:56:35.613Z,19.69
2016-09-30T00:57:35.640Z,19.66
2016-09-30T00:58:35.693Z,19.73
2016-09-30T00:59:35.788Z,19.64
2016-09-30T01:00:35.719Z,19.67
2016-09-30T01:01:35.746Z,19.66
2016-09-30T01:02:35.762Z,19.67
2016-09-30T01:03:35.797Z,19.66
2016-09-30T01:04:35.803Z,19.66
2016-09-30T01:05:35.841Z,19.69
2016-09-30T01:06:35.855Z,19.64
2016-09-30T01:07:35.870Z,19.74
2016-09-30T01:08:35.902Z,19.64
2016-09-30T01:09:35.924Z,19.63
2016-09-30T01:10:35.946Z,19.63
2016-09-30T01:11:35.975Z,19.7
2016-09-30T01:12:35.994Z,19.63
2016-09-30T01:13:36.016Z,19.67
2016-09-30T01:14:36.272Z,19.69
2016-09-30T01:15:36.069Z,19.71
2016-09-30T01:16:36.097Z,19.64
2016-09-30T01:17:36.115Z,19.62
2016-09-30T01:18:36.268Z,19.54
2016-09-30T01:19:36.267Z,19.67
2016-09-30T01:20:36.186Z,19.51
2016-09-30T01:21:36.221Z,19.63
2016-09-30T01:22:36.397Z,19.58
2016-09-30T01:23:36.256Z,19.62
2016-09-30T01:24:36.282Z,19.55
2016-09-30T01:25:36.297Z,19.62
2016-09-30T01:26:36.322Z,19.69
2016-09-30T01:27:36.352Z,19.56
2016-09-30T01:28:36.376Z,19.58
2016-09-30T01:29:36.398Z,19.63
2016-09-30T01:30:36.421Z,19.55
2016-09-30T01:31:36.439Z,19.55
2016-09-30T01:32:36.461Z,19.58
2016-09-30T01:33:36.499Z,19.59
2016-09-30T01:34:36.515Z,19.55
2016-09-30T01:35:36.533Z,19.71
2016-09-30T01:36:36.560Z,19.67
2016-09-30T01:37:36.581Z,19.55
2016-09-30T01:38:36.599Z,19.58
2016-09-30T01:39:36.636Z,19.63
2016-09-30T01:40:36.643Z,19.59
2016-09-30T01:41:36.682Z,19.62
2016-09-30T01:42:36.701Z,19.55
2016-09-30T01:43:36.718Z,19.67
2016-09-30T01:44:36.753Z,19.58
2016-09-30T01:45:36.868Z,19.63
2016-09-30T01:46:36.788Z,19.56
2016-09-30T01:47:36.827Z,19.62
2016-09-30T01:48:36.837Z,19.7
2016-09-30T01:49:36.872Z,19.62
2016-09-30T01:50:36.887Z,19.56
2016-09-30T01:51:36.917Z,19.64
2016-09-30T01:52:36.952Z,19.67
2016-09-30T01:53:36.958Z,19.62
2016-09-30T01:54:36.990Z,19.58
2016-09-30T01:55:37.013Z,19.64
2016-09-30T01:56:37.027Z,19.59
2016-09-30T01:57:37.053Z,19.59
2016-09-30T01:58:37.079Z,19.59
2016-09-30T01:59:37.103Z,19.58
2016-09-30T02:00:37.112Z,19.69
2016-09-30T02:01:37.150Z,19.56
2016-09-30T02:02:37.167Z,19.62
2016-09-30T02:03:37.200Z,19.55
2016-09-30T02:04:37.308Z,19.62
2016-09-30T02:05:37.368Z,19.59
2016-09-30T02:06:37.376Z,19.54
2016-09-30T02:07:37.280Z,19.56
2016-09-30T02:08:37.429Z,19.73
2016-09-30T02:09:37.437Z,19.71
2016-09-30T02:10:37.445Z,19.62
2016-09-30T02:11:37.386Z,19.62
2016-09-30T02:12:37.397Z,19.64
2016-09-30T02:13:37.431Z,19.69
2016-09-30T02:14:37.449Z,19.59
2016-09-30T02:15:37.481Z,19.62
2016-09-30T02:16:37.523Z,19.55
2016-09-30T02:17:37.529Z,19.71
2016-09-30T02:18:37.550Z,19.58
2016-09-30T02:19:37.554Z,19.56
2016-09-30T02:20:37.580Z,19.63
2016-09-30T02:21:37.615Z,19.69
2016-09-30T02:22:37.635Z,19.56
2016-09-30T02:23:37.672Z,19.62
2016-09-30T02:24:37.687Z,19.56
2016-09-30T02:25:37.700Z,19.55
2016-09-30T02:26:37.729Z,19.62
2016-09-30T02:27:37.752Z,19.62
2016-09-30T02:28:37.782Z,19.59
2016-09-30T02:29:37.809Z,19.51
2016-09-30T02:30:37.845Z,19.62
2016-09-30T02:31:37.840Z,19.55
2016-09-30T02:32:37.863Z,19.49
2016-09-30T02:33:37.898Z,19.48
2016-09-30T02:34:37.920Z,19.52
2016-09-30T02:35:37.941Z,19.64
2016-09-30T02:36:37.970Z,19.52
2016-09-30T02:37:37.993Z,19.54
2016-09-30T02:38:38.011Z,19.55
2016-09-30T02:39:38.038Z,19.58
2016-09-30T02:40:38.056Z,19.56
2016-09-30T02:41:38.080Z,19.54
2016-09-30T02:42:38.098Z,19.48
2016-09-30T02:43:38.127Z,19.55
2016-09-30T02:44:38.144Z,19.58
2016-09-30T02:45:38.174Z,19.51
2016-09-30T02:46:38.199Z,19.52
2016-09-30T02:47:38.212Z,19.55
2016-09-30T02:48:38.239Z,19.58
2016-09-30T02:49:38.259Z,19.55
2016-09-30T02:50:38.297Z,19.58
2016-09-30T02:51:38.314Z,19.45
2016-09-30T02:52:38.358Z,19.52
2016-09-30T02:53:38.397Z,19.54
2016-09-30T02:54:38.389Z,19.48
2016-09-30T02:55:38.406Z,19.41
2016-09-30T02:56:38.453Z,19.47
2016-09-30T02:57:38.457Z,19.39
2016-09-30T02:58:38.558Z,19.49
2016-09-30T02:59:38.503Z,19.37
2016-09-30T03:00:38.520Z,19.44
2016-09-30T03:01:38.547Z,19.44
2016-09-30T03:02:38.599Z,19.47
2016-09-30T03:03:38.598Z,19.47
2016-09-30T03:04:38.620Z,19.4
2016-09-30T03:05:38.835Z,19.41
2016-09-30T03:06:38.666Z,19.39
2016-09-30T03:07:38.686Z,19.31
2016-09-30T03:08:38.720Z,19.4
2016-09-30T03:09:38.939Z,19.37
2016-09-30T03:10:38.759Z,19.33
2016-09-30T03:11:38.786Z,19.27
2016-09-30T03:12:38.808Z,19.36
2016-09-30T03:13:38.826Z,19.33
2016-09-30T03:14:38.956Z,19.33
2016-09-30T03:15:38.984Z,19.41
2016-09-30T03:16:38.893Z,19.44
2016-09-30T03:17:38.920Z,19.39
2016-09-30T03:18:38.954Z,19.41
2016-09-30T03:19:38.973Z,19.29
2016-09-30T03:20:38.990Z,19.33
2016-09-30T03:21:39.020Z,19.31
2016-09-30T03:22:39.032Z,19.37
2016-09-30T03:23:39.076Z,19.34
2016-09-30T03:24:39.085Z,19.26
2016-09-30T03:25:39.140Z,19.34
2016-09-30T03:26:39.209Z,19.33
2016-09-30T03:27:39.325Z,19.34
2016-09-30T03:28:39.180Z,19.31
2016-09-30T03:29:39.189Z,19.3
2016-09-30T03:30:39.217Z,19.3
2016-09-30T03:31:39.256Z,19.24
2016-09-30T03:32:39.261Z,19.3
2016-09-30T03:33:39.281Z,19.27
2016-09-30T03:34:39.308Z,19.22
2016-09-30T03:35:39.343Z,19.3
2016-09-30T03:36:39.362Z,19.18
2016-09-30T03:37:39.381Z,19.24
2016-09-30T03:38:39.407Z,19.24
2016-09-30T03:39:39.434Z,19.24
2016-09-30T03:40:39.450Z,19.3
2016-09-30T03:41:39.480Z,19.29
2016-09-30T03:42:39.494Z,19.33
2016-09-30T03:43:39.517Z,19.27
2016-09-30T03:44:39.538Z,19.3
2016-09-30T03:45:39.567Z,19.33
2016-09-30T03:46:39.590Z,19.29
2016-09-30T03:47:39.614Z,19.15
2016-09-30T03:48:39.629Z,19.21
2016-09-30T03:49:39.669Z,19.19
2016-09-30T03:50:39.677Z,19.12
2016-09-30T03:51:39.702Z,19.16
2016-09-30T03:52:39.835Z,19.16
2016-09-30T03:53:39.864Z,19.29
2016-09-30T03:54:39.872Z,19.19
2016-09-30T03:55:39.876Z,19.16
2016-09-30T03:56:39.875Z,19.11
2016-09-30T03:57:39.928Z,19.26
2016-09-30T03:58:39.861Z,19.15
2016-09-30T03:59:40.042Z,19.24
2016-09-30T04:00:39.916Z,19.15
2016-09-30T04:01:39.951Z,19.15
2016-09-30T04:02:40.066Z,19.14
2016-09-30T04:03:39.987Z,19.09
2016-09-30T04:04:40.007Z,19.21
2016-09-30T04:05:40.038Z,19.22
2016-09-30T04:06:40.053Z,19.15
2016-09-30T04:07:40.074Z,19.18
2016-09-30T04:08:40.101Z,19.14
2016-09-30T04:09:40.132Z,19.15
2016-09-30T04:10:40.147Z,19.16
2016-09-30T04:11:40.168Z,19.26
2016-09-30T04:12:40.515Z,19.16
2016-09-30T04:13:40.220Z,19.12
2016-09-30T04:14:40.237Z,19.16
2016-09-30T04:15:40.255Z,19.16
2016-09-30T04:16:40.284Z,19.22
2016-09-30T04:17:40.312Z,19.07
2016-09-30T04:18:40.333Z,19.07
2016-09-30T04:19:40.368Z,19.08
2016-09-30T04:20:40.382Z,19.19
2016-09-30T04:21:40.405Z,19.09
2016-09-30T04:22:40.450Z,19.07
2016-09-30T04:23:40.452Z,19.11
2016-09-30T04:24:40.465Z,19.18
2016-09-30T04:25:40.580Z,19.04
2016-09-30T04:26:40.527Z,19.08
2016-09-30T04:27:40.543Z,19.04
2016-09-30T04:28:40.565Z,19.12
2016-09-30T04:29:40.576Z,19.11
2016-09-30T04:30:40.602Z,19.07
2016-09-30T04:31:40.629Z,19.04
2016-09-30T04:32:40.657Z,19
2016-09-30T04:33:40.681Z,19.07
2016-09-30T04:34:40.696Z,19.02
2016-09-30T04:35:40.715Z,19.08
2016-09-30T04:36:40.745Z,18.99
2016-09-30T04:37:40.765Z,19
2016-09-30T04:38:40.789Z,19.04
2016-09-30T04:39:40.830Z,18.92
2016-09-30T04:40:40.845Z,18.9
2016-09-30T04:41:40.985Z,18.96
2016-09-30T04:42:40.883Z,18.9
2016-09-30T04:43:40.910Z,18.95
2016-09-30T04:44:40.921Z,18.92
2016-09-30T04:45:40.968Z,18.96
2016-09-30T04:46:40.966Z,18.99
2016-09-30T04:47:41.005Z,18.99
2016-09-30T04:48:41.026Z,18.99
2016-09-30T04:49:41.054Z,18.99
2016-09-30T04:50:41.075Z,18.92
2016-09-30T04:51:41.083Z,18.93
2016-09-30T04:52:41.110Z,18.95
2016-09-30T04:53:41.134Z,18.96
2016-09-30T04:54:41.166Z,18.96
2016-09-30T04:55:41.184Z,18.9
2016-09-30T04:56:41.210Z,18.92
2016-09-30T04:57:41.226Z,18.93
2016-09-30T04:58:41.253Z,18.89
2016-09-30T04:59:41.280Z,18.9
2016-09-30T05:00:41.346Z,18.9
2016-09-30T05:01:41.410Z,18.88
2016-09-30T05:02:41.449Z,18.84
2016-09-30T05:03:41.382Z,18.88
2016-09-30T05:04:41.398Z,18.86
2016-09-30T05:05:41.419Z,18.93
2016-09-30T05:06:41.461Z,18.96
2016-09-30T05:07:41.573Z,18.83
2016-09-30T05:08:41.499Z,18.84
2016-09-30T05:09:41.504Z,18.81
2016-09-30T05:10:41.529Z,18.86
2016-09-30T05:11:41.559Z,18.81
2016-09-30T05:12:41.583Z,18.84
2016-09-30T05:13:41.594Z,18.84
2016-09-30T05:14:41.645Z,18.78
2016-09-30T05:15:41.637Z,18.8
2016-09-30T05:16:41.671Z,18.84
2016-09-30T05:17:41.692Z,18.74
2016-09-30T05:18:41.721Z,18.73
2016-09-30T05:19:41.749Z,18.77
2016-09-30T05:20:41.781Z,18.81
2016-09-30T05:21:41.784Z,18.78
2016-09-30T05:22:41.818Z,18.77
2016-09-30T05:23:41.844Z,18.84
2016-09-30T05:24:41.856Z,18.74
2016-09-30T05:25:41.882Z,18.75
2016-09-30T05:26:41.915Z,18.81
2016-09-30T05:27:41.921Z,18.74
2016-09-30T05:28:41.947Z,18.77
2016-09-30T05:29:41.970Z,18.8
2016-09-30T05:30:42.012Z,18.75
2016-09-30T05:31:42.009Z,18.75
2016-09-30T05:32:42.019Z,18.77
2016-09-30T05:33:42.058Z,18.74
2016-09-30T05:34:42.074Z,18.73
2016-09-30T05:35:42.099Z,18.7
2016-09-30T05:36:42.131Z,18.77
2016-09-30T05:37:42.142Z,18.75
2016-09-30T05:38:42.170Z,18.78
2016-09-30T05:39:42.197Z,18.74
2016-09-30T05:40:42.220Z,18.81
2016-09-30T05:41:42.242Z,18.74
2016-09-30T05:42:42.271Z,18.71
2016-09-30T05:43:42.352Z,18.75
2016-09-30T05:44:42.378Z,18.68
2016-09-30T05:45:42.333Z,18.63
2016-09-30T05:46:42.352Z,18.7
2016-09-30T05:47:42.689Z,18.7
2016-09-30T05:48:42.383Z,18.7
2016-09-30T05:49:42.426Z,18.73
2016-09-30T05:50:42.444Z,18.66
2016-09-30T05:51:42.476Z,18.7
2016-09-30T05:52:42.492Z,18.73
2016-09-30T05:53:42.516Z,18.6
2016-09-30T05:54:42.531Z,18.75
2016-09-30T05:55:42.561Z,18.65
2016-09-30T05:56:42.582Z,18.6
2016-09-30T05:57:42.607Z,18.68
2016-09-30T05:58:42.679Z,18.62
2016-09-30T05:59:42.654Z,18.65
2016-09-30T06:00:42.665Z,18.68
2016-09-30T06:01:42.748Z,18.63
2016-09-30T06:02:43.122Z,18.62
2016-09-30T06:03:42.736Z,18.63
2016-09-30T06:04:42.757Z,18.63
2016-09-30T06:05:42.782Z,18.62
2016-09-30T06:06:43.007Z,18.71
2016-09-30T06:07:42.895Z,18.66
2016-09-30T06:08:42.849Z,18.66
2016-09-30T06:09:42.876Z,18.63
2016-09-30T06:10:42.901Z,18.62
2016-09-30T06:11:42.912Z,18.6
2016-09-30T06:12:42.937Z,18.6
2016-09-30T06:13:42.966Z,18.63
2016-09-30T06:14:43.047Z,18.6
2016-09-30T06:15:43.014Z,18.59
2016-09-30T06:16:43.212Z,18.53
2016-09-30T06:17:43.142Z,18.55
2016-09-30T06:18:43.080Z,18.59
2016-09-30T06:19:43.103Z,18.56
2016-09-30T06:20:43.134Z,18.55
2016-09-30T06:21:43.159Z,18.63
2016-09-30T06:22:43.171Z,18.6
2016-09-30T06:23:43.188Z,18.55
2016-09-30T06:24:43.216Z,18.62
2016-09-30T06:25:43.234Z,18.65
2016-09-30T06:26:43.578Z,18.63
2016-09-30T06:27:43.295Z,18.65
2016-09-30T06:28:43.425Z,18.6
2016-09-30T06:29:43.326Z,18.63
2016-09-30T06:30:43.360Z,18.62
2016-09-30T06:31:43.579Z,18.59
2016-09-30T06:32:43.392Z,18.59
2016-09-30T06:33:43.425Z,18.62
2016-09-30T06:34:43.442Z,18.66
2016-09-30T06:35:43.469Z,18.55
2016-09-30T06:36:43.496Z,18.62
2016-09-30T06:37:43.519Z,18.68
2016-09-30T06:38:43.534Z,18.65
2016-09-30T06:39:43.564Z,18.55
2016-09-30T06:40:43.718Z,18.56
2016-09-30T06:41:43.614Z,18.62
2016-09-30T06:42:43.790Z,18.6
2016-09-30T06:43:43.796Z,18.56
2016-09-30T06:44:43.665Z,18.63
2016-09-30T06:45:43.688Z,18.62
2016-09-30T06:46:43.724Z,18.6
2016-09-30T06:47:43.740Z,18.65
2016-09-30T06:48:43.757Z,18.53
2016-09-30T06:49:43.931Z,18.6
2016-09-30T06:50:43.801Z,18.62
2016-09-30T06:51:43.845Z,18.58
2016-09-30T06:52:43.856Z,18.66
2016-09-30T06:53:43.881Z,18.56
2016-09-30T06:54:43.907Z,18.55
2016-09-30T06:55:43.922Z,18.6
2016-09-30T06:56:43.941Z,18.62
2016-09-30T06:57:43.962Z,18.58
2016-09-30T06:58:43.975Z,18.65
2016-09-30T06:59:44.022Z,18.6
2016-09-30T07:00:44.149Z,18.58
2016-09-30T07:01:44.066Z,18.63
2016-09-30T07:02:44.090Z,18.62
2016-09-30T07:03:44.111Z,18.63
2016-09-30T07:04:44.128Z,18.53
2016-09-30T07:05:44.151Z,18.58
2016-09-30T07:06:44.167Z,18.63
2016-09-30T07:07:44.594Z,18.62
2016-09-30T07:08:44.367Z,18.65
2016-09-30T07:09:44.251Z,18.63
2016-09-30T07:10:44.271Z,18.63
2016-09-30T07:11:44.275Z,18.63
2016-09-30T07:12:44.312Z,18.58
2016-09-30T07:13:44.337Z,18.5
2016-09-30T07:14:44.381Z,18.65
2016-09-30T07:15:44.380Z,18.58
2016-09-30T07:16:44.392Z,18.6
2016-09-30T07:17:44.417Z,18.58
2016-09-30T07:18:44.450Z,18.58
2016-09-30T07:19:44.465Z,18.68
2016-09-30T07:20:44.499Z,18.65
2016-09-30T07:21:44.516Z,18.59
2016-09-30T07:22:44.527Z,18.66
2016-09-30T07:23:44.549Z,18.63
2016-09-30T07:24:44.567Z,18.62
2016-09-30T07:25:44.685Z,18.56
2016-09-30T07:26:44.666Z,18.59
2016-09-30T07:27:44.744Z,18.63
2016-09-30T07:28:44.670Z,18.71
2016-09-30T07:29:44.695Z,18.7
2016-09-30T07:30:44.705Z,18.66
2016-09-30T07:31:44.806Z,18.73
2016-09-30T07:32:44.806Z,18.7
2016-09-30T07:33:44.817Z,18.74
2016-09-30T07:34:44.862Z,18.7
2016-09-30T07:35:44.830Z,18.7
2016-09-30T07:36:44.848Z,18.7
2016-09-30T07:37:44.990Z,18.66
2016-09-30T07:38:44.991Z,18.75
2016-09-30T07:39:44.916Z,18.75
2016-09-30T07:40:45.028Z,18.77
2016-09-30T07:41:44.975Z,18.73
2016-09-30T07:42:44.989Z,18.75
2016-09-30T07:43:45.315Z,18.74
2016-09-30T07:44:45.030Z,18.77
2016-09-30T07:45:45.065Z,18.77
2016-09-30T07:46:45.077Z,18.78
2016-09-30T07:47:45.092Z,18.75
2016-09-30T07:48:45.263Z,18.73
2016-09-30T07:49:45.152Z,18.8
2016-09-30T07:50:45.175Z,18.74
2016-09-30T07:51:45.242Z,18.78
2016-09-30T07:52:45.207Z,18.89
2016-09-30T07:53:45.242Z,18.86
2016-09-30T07:54:45.256Z,18.84
2016-09-30T07:55:45.274Z,18.89
2016-09-30T07:56:45.303Z,18.83
2016-09-30T07:57:45.325Z,18.84
2016-09-30T07:58:45.350Z,18.86
2016-09-30T07:59:45.381Z,18.95
2016-09-30T08:00:45.397Z,18.89
2016-09-30T08:01:45.426Z,18.92
2016-09-30T08:02:45.535Z,18.88
2016-09-30T08:03:45.461Z,18.99
2016-09-30T08:04:45.477Z,18.92
2016-09-30T08:05:45.516Z,18.89
2016-09-30T08:06:45.537Z,18.95
2016-09-30T08:07:45.550Z,18.96
2016-09-30T08:08:45.567Z,19.04
2016-09-30T08:09:45.603Z,18.95
2016-09-30T08:10:45.621Z,18.96
2016-09-30T08:11:45.641Z,18.95
2016-09-30T08:12:45.670Z,18.9
2016-09-30T08:13:45.682Z,18.9
2016-09-30T08:14:45.850Z,19.04
2016-09-30T08:15:45.760Z,19
2016-09-30T08:16:45.759Z,18.93
2016-09-30T08:17:45.786Z,18.95
2016-09-30T08:18:45.803Z,18.92
2016-09-30T08:19:45.826Z,18.98
2016-09-30T08:20:45.848Z,19.02
2016-09-30T08:21:45.883Z,19.09
2016-09-30T08:22:45.896Z,18.92
2016-09-30T08:23:45.917Z,18.92
2016-09-30T08:24:45.968Z,19.02
2016-09-30T08:25:45.962Z,18.92
2016-09-30T08:26:46.003Z,18.93
2016-09-30T08:27:46.013Z,18.99
2016-09-30T08:28:46.036Z,19.07
2016-09-30T08:29:46.043Z,18.99
2016-09-30T08:30:46.075Z,19.04
2016-09-30T08:31:46.174Z,18.99
2016-09-30T08:32:46.137Z,19.02
2016-09-30T08:33:46.147Z,19.08
2016-09-30T08:34:46.179Z,19.08
2016-09-30T08:35:46.195Z,19
2016-09-30T08:36:46.329Z,19.09
2016-09-30T08:37:46.238Z,19.11
2016-09-30T08:38:46.258Z,19.09
2016-09-30T08:39:46.394Z,19.04
2016-09-30T08:40:46.317Z,19.09
2016-09-30T08:41:46.325Z,19.15
2016-09-30T08:42:46.354Z,19.16
2016-09-30T08:43:46.376Z,19.16
2016-09-30T08:44:46.401Z,19.14
2016-09-30T08:45:46.436Z,19.27
2016-09-30T08:46:46.588Z,19.21
2016-09-30T08:47:46.458Z,19.24
2016-09-30T08:48:46.485Z,19.21
2016-09-30T08:49:46.506Z,19.31
2016-09-30T08:50:46.538Z,19.24
2016-09-30T08:51:46.562Z,19.29
2016-09-30T08:52:46.572Z,19.27
2016-09-30T08:53:46.596Z,19.29
2016-09-30T08:54:46.634Z,19.3
2016-09-30T08:55:46.657Z,19.3
2016-09-30T08:56:46.680Z,19.41
2016-09-30T08:57:46.688Z,19.27
2016-09-30T08:58:46.726Z,19.3
2016-09-30T08:59:46.733Z,19.39
2016-09-30T09:00:46.766Z,19.41
2016-09-30T09:01:46.789Z,19.45
2016-09-30T09:02:46.815Z,19.44
2016-09-30T09:03:46.840Z,19.47
2016-09-30T09:04:46.855Z,19.49
2016-09-30T09:05:46.885Z,19.41
2016-09-30T09:06:46.904Z,19.55
2016-09-30T09:07:46.924Z,19.56
2016-09-30T09:08:46.949Z,19.52
2016-09-30T09:09:46.973Z,19.66
2016-09-30T09:10:47.001Z,19.58
2016-09-30T09:11:47.017Z,19.63
2016-09-30T09:12:47.048Z,19.59
2016-09-30T09:13:47.057Z,19.73
2016-09-30T09:14:47.099Z,19.67
2016-09-30T09:15:47.119Z,19.66
2016-09-30T09:16:47.144Z,19.74
2016-09-30T09:17:47.152Z,19.73
2016-09-30T09:18:47.190Z,19.7
2016-09-30T09:19:47.216Z,19.7
2016-09-30T09:20:47.228Z,19.74
2016-09-30T09:21:47.254Z,19.82
2016-09-30T09:22:47.283Z,19.74
2016-09-30T09:23:47.302Z,19.69
2016-09-30T09:24:47.317Z,19.77
2016-09-30T09:25:47.340Z,19.76
2016-09-30T09:26:47.369Z,19.81
2016-09-30T09:27:47.399Z,19.84
2016-09-30T09:28:47.408Z,19.84
2016-09-30T09:29:47.434Z,19.79
2016-09-30T09:30:47.451Z,19.82
2016-09-30T09:31:47.476Z,19.88
2016-09-30T09:32:47.505Z,19.86
2016-09-30T09:33:47.537Z,19.92
2016-09-30T09:34:47.545Z,19.95
2016-09-30T09:35:47.578Z,19.94
2016-09-30T09:36:47.601Z,19.96
2016-09-30T09:37:47.624Z,19.94
2016-09-30T09:38:47.649Z,20.02
2016-09-30T09:39:47.793Z,19.92
2016-09-30T09:40:48.015Z,20.04
2016-09-30T09:41:47.713Z,20
2016-09-30T09:42:48.281Z,20
2016-09-30T09:43:47.768Z,20.02
2016-09-30T09:44:47.779Z,20.03
2016-09-30T09:45:47.815Z,20.02
2016-09-30T09:46:47.838Z,20.02
2016-09-30T09:47:47.860Z,20.02
2016-09-30T09:48:47.880Z,20.06
2016-09-30T09:49:47.896Z,20.06
2016-09-30T09:50:47.925Z,20
2016-09-30T09:51:47.941Z,20.06
2016-09-30T09:52:47.978Z,20.02
2016-09-30T09:53:47.999Z,20.04
2016-09-30T09:54:48.020Z,20.03
2016-09-30T09:55:48.041Z,20.02
2016-09-30T09:56:48.067Z,20.07
2016-09-30T09:57:48.090Z,20.04
2016-09-30T09:58:48.124Z,20.02
2016-09-30T09:59:48.134Z,20.03
2016-09-30T10:00:48.167Z,20.02
2016-09-30T10:01:48.183Z,20.03
2016-09-30T10:02:48.209Z,20.04
2016-09-30T10:03:48.245Z,20
2016-09-30T10:04:48.258Z,20.03
2016-09-30T10:05:48.292Z,20.07
2016-09-30T10:06:48.313Z,20.04
2016-09-30T10:07:48.327Z,20.07
2016-09-30T10:08:48.352Z,20.18
2016-09-30T10:09:48.371Z,20.09
2016-09-30T10:10:48.413Z,20.16
2016-09-30T10:11:48.419Z,20.19
2016-09-30T10:12:48.453Z,20.21
2016-09-30T10:13:48.467Z,20.14
2016-09-30T10:14:48.491Z,20.11
2016-09-30T10:15:48.511Z,20.14
2016-09-30T10:16:48.540Z,20.26
2016-09-30T10:17:48.566Z,20.26
2016-09-30T10:18:48.581Z,20.25
2016-09-30T10:19:48.611Z,20.26
2016-09-30T10:20:48.628Z,20.4
2016-09-30T10:21:48.661Z,20.31
2016-09-30T10:22:48.681Z,20.5
2016-09-30T10:23:48.707Z,20.5
2016-09-30T10:24:48.728Z,20.51
2016-09-30T10:25:48.744Z,20.59
2016-09-30T10:26:48.780Z,20.63
2016-09-30T10:27:48.796Z,20.74
2016-09-30T10:28:48.829Z,20.59
2016-09-30T10:29:49.154Z,20.74
2016-09-30T10:30:48.879Z,20.72
2016-09-30T10:31:48.894Z,20.77
2016-09-30T10:32:48.922Z,20.8
2016-09-30T10:33:48.935Z,20.92
2016-09-30T10:34:48.962Z,20.93
2016-09-30T10:35:48.997Z,20.85
2016-09-30T10:36:49.010Z,20.95
2016-09-30T10:37:49.056Z,20.96
2016-09-30T10:38:49.072Z,20.93
2016-09-30T10:39:49.077Z,20.93
2016-09-30T10:40:49.112Z,20.99
2016-09-30T10:41:49.133Z,20.97
2016-09-30T10:42:49.168Z,20.97
2016-09-30T10:43:49.185Z,21.02
2016-09-30T10:44:49.203Z,21.06
2016-09-30T10:45:49.219Z,21.11
2016-09-30T10:46:49.248Z,21.05
2016-09-30T10:47:49.287Z,21.02
2016-09-30T10:48:49.305Z,21.03
2016-09-30T10:49:49.327Z,21.05
2016-09-30T10:50:49.677Z,21.02
2016-09-30T10:51:49.378Z,21.02
2016-09-30T10:52:49.397Z,21.14
2016-09-30T10:53:49.428Z,21.12
2016-09-30T10:54:50.066Z,21.17
2016-09-30T10:55:49.472Z,21.14
2016-09-30T10:56:49.493Z,21.15
2016-09-30T10:57:49.508Z,21.15
2016-09-30T10:58:49.532Z,21.15
2016-09-30T10:59:49.565Z,21.12
2016-09-30T11:00:49.591Z,21.11
2016-09-30T11:01:49.612Z,21.24
2016-09-30T11:02:49.641Z,21.17
2016-09-30T11:03:49.664Z,21.2
2016-09-30T11:04:49.688Z,21.17
2016-09-30T11:05:49.714Z,21.22
2016-09-30T11:06:49.732Z,21.24
2016-09-30T11:07:49.758Z,21.22
2016-09-30T11:08:49.780Z,21.24
2016-09-30T11:09:49.808Z,21.29
2016-09-30T11:10:49.839Z,21.25
2016-09-30T11:11:49.857Z,21.21
2016-09-30T11:12:49.887Z,21.21
2016-09-30T11:13:49.915Z,21.25
2016-09-30T11:14:49.972Z,21.17
2016-09-30T11:15:49.979Z,21.21
2016-09-30T11:16:49.982Z,21.2
2016-09-30T11:17:49.998Z,21.21
2016-09-30T11:18:50.027Z,21.18
2016-09-30T11:19:50.049Z,21.14
2016-09-30T11:20:50.086Z,21.15
2016-09-30T11:21:50.105Z,21.17
2016-09-30T11:22:50.118Z,21.11
2016-09-30T11:23:50.146Z,21.15
2016-09-30T11:24:50.205Z,21.15
2016-09-30T11:25:50.301Z,21.15
2016-09-30T11:26:50.329Z,21.12
2016-09-30T11:27:50.340Z,21.07
2016-09-30T11:28:50.349Z,21.05
2016-09-30T11:29:50.386Z,21.09
2016-09-30T11:30:50.384Z,21.07
2016-09-30T11:31:50.675Z,21.05
2016-09-30T11:32:50.402Z,21.03
2016-09-30T11:33:50.419Z,21.05
2016-09-30T11:34:50.417Z,20.99
2016-09-30T11:35:50.477Z,21.03
2016-09-30T11:36:50.628Z,20.99
2016-09-30T11:37:50.494Z,21
2016-09-30T11:38:50.614Z,20.99
2016-09-30T11:39:50.616Z,20.92
2016-09-30T11:40:50.650Z,20.9
2016-09-30T11:41:50.829Z,21.02
2016-09-30T11:42:50.708Z,20.9
2016-09-30T11:43:50.741Z,20.93
2016-09-30T11:44:50.676Z,20.9
2016-09-30T11:45:50.685Z,20.96
2016-09-30T11:46:50.767Z,20.93
2016-09-30T11:47:50.731Z,20.96
2016-09-30T11:48:50.750Z,20.87
2016-09-30T11:49:50.781Z,20.85
2016-09-30T11:50:50.797Z,20.88
2016-09-30T11:51:50.822Z,20.87
2016-09-30T11:52:50.850Z,20.87
2016-09-30T11:53:50.879Z,20.88
2016-09-30T11:54:50.899Z,20.85
2016-09-30T11:55:50.918Z,20.84
2016-09-30T11:56:50.953Z,20.82
2016-09-30T11:57:50.981Z,20.88
2016-09-30T11:58:51.002Z,20.81
2016-09-30T11:59:51.021Z,20.85
2016-09-30T12:00:51.047Z,20.78
2016-09-30T12:01:51.074Z,20.88
2016-09-30T12:02:51.089Z,20.81
2016-09-30T12:03:51.118Z,20.81
2016-09-30T12:04:51.141Z,20.77
2016-09-30T12:05:51.158Z,20.81
2016-09-30T12:06:51.190Z,20.77
2016-09-30T12:07:51.210Z,20.75
2016-09-30T12:08:51.229Z,20.75
2016-09-30T12:09:51.272Z,20.74
2016-09-30T12:10:51.296Z,20.7
2016-09-30T12:11:51.348Z,20.63
2016-09-30T12:12:51.346Z,20.59
2016-09-30T12:13:51.356Z,20.66
2016-09-30T12:14:51.438Z,20.6
2016-09-30T12:15:51.406Z,20.63
2016-09-30T12:16:51.434Z,20.6
2016-09-30T12:17:51.458Z,20.56
2016-09-30T12:18:51.478Z,20.62
2016-09-30T12:19:51.501Z,20.67
2016-09-30T12:20:51.544Z,20.47
2016-09-30T12:21:51.552Z,20.51
2016-09-30T12:22:51.578Z,20.59
2016-09-30T12:23:51.599Z,20.55
2016-09-30T12:24:51.631Z,20.44
2016-09-30T12:25:51.649Z,20.43
2016-09-30T12:26:51.668Z,20.43
2016-09-30T12:27:51.687Z,20.44
2016-09-30T12:28:51.716Z,20.47
2016-09-30T12:29:51.745Z,20.55
2016-09-30T12:30:51.779Z,20.5
2016-09-30T12:31:51.788Z,20.44
2016-09-30T12:32:51.812Z,20.52
2016-09-30T12:33:51.841Z,20.41
2016-09-30T12:34:51.870Z,20.41
2016-09-30T12:35:51.899Z,20.44
2016-09-30T12:36:51.909Z,20.41
2016-09-30T12:37:51.931Z,20.43
2016-09-30T12:38:51.952Z,20.26
2016-09-30T12:39:51.977Z,20.34
2016-09-30T12:40:52.008Z,20.39
2016-09-30T12:41:52.038Z,20.4
2016-09-30T12:42:52.509Z,20.32
2016-09-30T12:43:52.083Z,20.34
2016-09-30T12:44:52.128Z,20.37
2016-09-30T12:45:52.131Z,20.31
2016-09-30T12:46:52.147Z,20.24
2016-09-30T12:47:52.710Z,20.26
2016-09-30T12:48:52.314Z,20.26
2016-09-30T12:49:52.325Z,20.26
2016-09-30T12:50:52.368Z,20.25
2016-09-30T12:51:52.474Z,20.32
2016-09-30T12:52:52.482Z,20.29
2016-09-30T12:53:52.548Z,20.31
2016-09-30T12:54:52.493Z,20.28
2016-09-30T12:55:52.503Z,20.28